sensor_id;sensor_type;location;lat;lon;timestamp;P1;durP1;ratioP1;P2;durP2;ratioP2
12681;SDS011;6405;59.208;18.216;2024-01-07T00:01:02;9.53;;;4.73;;
12681;SDS011;6405;59.208;18.216;2024-01-07T00:03:27;11.43;;;5.87;;
12681;SDS011;6405;59.208;18.216;2024-01-07T00:05:53;10.20;;;5.67;;
12681;SDS011;6405;59.208;18.216;2024-01-07T00:08:19;10.23;;;4.80;;
12681;SDS011;6405;59.208;18.216;2024-01-07T00:10:46;9.87;;;5.17;;
12681;SDS011;6405;59.208;18.216;2024-01-07T00:13:11;14.93;;;5.80;;
12681;SDS011;6405;59.208;18.216;2024-01-07T00:15:37;11.37;;;5.00;;
12681;SDS011;6405;59.208;18.216;2024-01-07T00:18:03;11.57;;;5.27;;
12681;SDS011;6405;59.208;18.216;2024-01-07T00:20:28;11.20;;;5.63;;
12681;SDS011;6405;59.208;18.216;2024-01-07T00:22:54;9.77;;;5.10;;
12681;SDS011;6405;59.208;18.216;2024-01-07T00:25:21;11.50;;;5.40;;
12681;SDS011;6405;59.208;18.216;2024-01-07T00:27:47;15.47;;;6.23;;
12681;SDS011;6405;59.208;18.216;2024-01-07T00:30:13;9.87;;;4.67;;
12681;SDS011;6405;59.208;18.216;2024-01-07T00:32:38;8.70;;;4.90;;
12681;SDS011;6405;59.208;18.216;2024-01-07T00:35:04;10.97;;;5.60;;
12681;SDS011;6405;59.208;18.216;2024-01-07T00:37:30;13.17;;;6.00;;
12681;SDS011;6405;59.208;18.216;2024-01-07T00:39:56;10.40;;;5.30;;
12681;SDS011;6405;59.208;18.216;2024-01-07T00:42:22;11.17;;;5.77;;
12681;SDS011;6405;59.208;18.216;2024-01-07T00:44:47;9.10;;;5.07;;
12681;SDS011;6405;59.208;18.216;2024-01-07T00:47:13;12.73;;;4.80;;
12681;SDS011;6405;59.208;18.216;2024-01-07T00:49:39;8.50;;;4.23;;
12681;SDS011;6405;59.208;18.216;2024-01-07T00:52:06;7.03;;;4.83;;
12681;SDS011;6405;59.208;18.216;2024-01-07T00:54:31;8.80;;;4.67;;
12681;SDS011;6405;59.208;18.216;2024-01-07T00:56:57;9.37;;;5.43;;
12681;SDS011;6405;59.208;18.216;2024-01-07T00:59:23;15.47;;;5.20;;
12681;SDS011;6405;59.208;18.216;2024-01-07T01:01:48;9.77;;;5.20;;
12681;SDS011;6405;59.208;18.216;2024-01-07T01:04:14;10.53;;;5.67;;
12681;SDS011;6405;59.208;18.216;2024-01-07T01:06:40;11.43;;;4.53;;
12681;SDS011;6405;59.208;18.216;2024-01-07T01:09:05;11.87;;;5.07;;
12681;SDS011;6405;59.208;18.216;2024-01-07T01:11:31;10.10;;;4.77;;
12681;SDS011;6405;59.208;18.216;2024-01-07T01:13:57;8.63;;;4.60;;
12681;SDS011;6405;59.208;18.216;2024-01-07T01:16:22;9.90;;;4.97;;
12681;SDS011;6405;59.208;18.216;2024-01-07T01:18:49;9.37;;;5.53;;
12681;SDS011;6405;59.208;18.216;2024-01-07T01:21:15;11.43;;;5.10;;
12681;SDS011;6405;59.208;18.216;2024-01-07T01:23:41;10.50;;;4.70;;
12681;SDS011;6405;59.208;18.216;2024-01-07T01:26:07;9.00;;;4.53;;
12681;SDS011;6405;59.208;18.216;2024-01-07T01:28:33;10.07;;;5.40;;
12681;SDS011;6405;59.208;18.216;2024-01-07T01:30:59;8.43;;;4.33;;
12681;SDS011;6405;59.208;18.216;2024-01-07T01:33:24;7.10;;;4.47;;
12681;SDS011;6405;59.208;18.216;2024-01-07T01:35:50;7.87;;;4.03;;
12681;SDS011;6405;59.208;18.216;2024-01-07T01:38:16;8.37;;;4.27;;
12681;SDS011;6405;59.208;18.216;2024-01-07T01:40:42;8.93;;;5.10;;
12681;SDS011;6405;59.208;18.216;2024-01-07T01:43:07;7.93;;;4.73;;
12681;SDS011;6405;59.208;18.216;2024-01-07T01:45:33;7.17;;;4.67;;
12681;SDS011;6405;59.208;18.216;2024-01-07T01:47:59;7.63;;;4.10;;
12681;SDS011;6405;59.208;18.216;2024-01-07T01:50:25;8.13;;;4.90;;
12681;SDS011;6405;59.208;18.216;2024-01-07T01:52:51;8.03;;;4.47;;
12681;SDS011;6405;59.208;18.216;2024-01-07T01:55:18;11.23;;;5.13;;
12681;SDS011;6405;59.208;18.216;2024-01-07T01:57:44;9.20;;;4.40;;
12681;SDS011;6405;59.208;18.216;2024-01-07T02:00:12;9.80;;;5.03;;
12681;SDS011;6405;59.208;18.216;2024-01-07T02:02:38;7.83;;;4.77;;
12681;SDS011;6405;59.208;18.216;2024-01-07T02:05:04;8.83;;;4.70;;
12681;SDS011;6405;59.208;18.216;2024-01-07T02:07:30;9.20;;;4.20;;
12681;SDS011;6405;59.208;18.216;2024-01-07T02:09:56;6.13;;;4.33;;
12681;SDS011;6405;59.208;18.216;2024-01-07T02:12:22;11.30;;;4.90;;
12681;SDS011;6405;59.208;18.216;2024-01-07T02:14:48;8.90;;;4.20;;
12681;SDS011;6405;59.208;18.216;2024-01-07T02:17:14;8.90;;;4.47;;
12681;SDS011;6405;59.208;18.216;2024-01-07T02:19:40;8.97;;;4.70;;
12681;SDS011;6405;59.208;18.216;2024-01-07T02:22:06;6.93;;;4.13;;
12681;SDS011;6405;59.208;18.216;2024-01-07T02:24:31;7.67;;;4.17;;
12681;SDS011;6405;59.208;18.216;2024-01-07T02:26:57;8.27;;;4.50;;
12681;SDS011;6405;59.208;18.216;2024-01-07T02:29:27;9.03;;;4.63;;
12681;SDS011;6405;59.208;18.216;2024-01-07T02:31:53;9.60;;;4.40;;
12681;SDS011;6405;59.208;18.216;2024-01-07T02:34:18;7.63;;;3.97;;
12681;SDS011;6405;59.208;18.216;2024-01-07T02:36:44;6.80;;;3.63;;
12681;SDS011;6405;59.208;18.216;2024-01-07T02:39:10;7.77;;;3.83;;
12681;SDS011;6405;59.208;18.216;2024-01-07T02:41:35;9.80;;;4.10;;
12681;SDS011;6405;59.208;18.216;2024-01-07T02:44:01;13.23;;;4.97;;
12681;SDS011;6405;59.208;18.216;2024-01-07T02:46:27;8.03;;;4.23;;
12681;SDS011;6405;59.208;18.216;2024-01-07T02:48:52;7.57;;;4.57;;
12681;SDS011;6405;59.208;18.216;2024-01-07T02:51:18;9.53;;;4.50;;
12681;SDS011;6405;59.208;18.216;2024-01-07T02:53:44;7.50;;;3.90;;
12681;SDS011;6405;59.208;18.216;2024-01-07T02:56:09;7.77;;;4.57;;
12681;SDS011;6405;59.208;18.216;2024-01-07T02:58:35;8.30;;;4.30;;
12681;SDS011;6405;59.208;18.216;2024-01-07T03:01:01;6.97;;;4.00;;
12681;SDS011;6405;59.208;18.216;2024-01-07T03:03:27;6.13;;;4.23;;
12681;SDS011;6405;59.208;18.216;2024-01-07T03:05:52;7.53;;;4.13;;
12681;SDS011;6405;59.208;18.216;2024-01-07T03:08:18;7.73;;;4.13;;
12681;SDS011;6405;59.208;18.216;2024-01-07T03:10:43;6.30;;;4.40;;
12681;SDS011;6405;59.208;18.216;2024-01-07T03:13:09;8.33;;;4.43;;
12681;SDS011;6405;59.208;18.216;2024-01-07T03:15:36;8.80;;;4.40;;
12681;SDS011;6405;59.208;18.216;2024-01-07T03:18:03;8.20;;;4.57;;
12681;SDS011;6405;59.208;18.216;2024-01-07T03:20:29;9.77;;;4.80;;
12681;SDS011;6405;59.208;18.216;2024-01-07T03:22:54;8.20;;;4.73;;
12681;SDS011;6405;59.208;18.216;2024-01-07T03:25:20;8.17;;;4.67;;
12681;SDS011;6405;59.208;18.216;2024-01-07T03:27:46;9.70;;;5.07;;
12681;SDS011;6405;59.208;18.216;2024-01-07T03:30:11;8.13;;;4.23;;
12681;SDS011;6405;59.208;18.216;2024-01-07T03:32:37;6.50;;;4.13;;
12681;SDS011;6405;59.208;18.216;2024-01-07T03:35:03;7.40;;;4.20;;
12681;SDS011;6405;59.208;18.216;2024-01-07T03:37:29;7.50;;;3.87;;
12681;SDS011;6405;59.208;18.216;2024-01-07T03:39:55;6.53;;;3.80;;
12681;SDS011;6405;59.208;18.216;2024-01-07T03:42:20;6.60;;;4.13;;
12681;SDS011;6405;59.208;18.216;2024-01-07T03:44:46;6.30;;;3.83;;
12681;SDS011;6405;59.208;18.216;2024-01-07T03:47:12;8.17;;;4.60;;
12681;SDS011;6405;59.208;18.216;2024-01-07T03:49:37;10.57;;;4.10;;
12681;SDS011;6405;59.208;18.216;2024-01-07T03:52:05;8.73;;;4.80;;
12681;SDS011;6405;59.208;18.216;2024-01-07T03:54:31;8.90;;;4.77;;
12681;SDS011;6405;59.208;18.216;2024-01-07T03:56:56;7.77;;;3.33;;
12681;SDS011;6405;59.208;18.216;2024-01-07T03:59:22;10.43;;;4.40;;
12681;SDS011;6405;59.208;18.216;2024-01-07T04:01:50;8.20;;;4.27;;
12681;SDS011;6405;59.208;18.216;2024-01-07T04:04:16;8.37;;;4.17;;
12681;SDS011;6405;59.208;18.216;2024-01-07T04:06:42;10.83;;;4.80;;
12681;SDS011;6405;59.208;18.216;2024-01-07T04:09:08;7.60;;;4.47;;
12681;SDS011;6405;59.208;18.216;2024-01-07T04:11:38;8.47;;;4.20;;
12681;SDS011;6405;59.208;18.216;2024-01-07T04:14:07;5.80;;;3.30;;
12681;SDS011;6405;59.208;18.216;2024-01-07T04:16:33;5.63;;;3.57;;
12681;SDS011;6405;59.208;18.216;2024-01-07T04:18:59;9.23;;;4.07;;
12681;SDS011;6405;59.208;18.216;2024-01-07T04:21:25;7.60;;;4.33;;
12681;SDS011;6405;59.208;18.216;2024-01-07T04:23:51;9.40;;;4.37;;
12681;SDS011;6405;59.208;18.216;2024-01-07T04:26:16;8.10;;;4.50;;
12681;SDS011;6405;59.208;18.216;2024-01-07T04:28:42;6.80;;;3.80;;
12681;SDS011;6405;59.208;18.216;2024-01-07T04:31:08;6.83;;;4.33;;
12681;SDS011;6405;59.208;18.216;2024-01-07T04:33:34;9.93;;;4.17;;
12681;SDS011;6405;59.208;18.216;2024-01-07T04:36:00;8.60;;;3.77;;
12681;SDS011;6405;59.208;18.216;2024-01-07T04:38:26;6.40;;;3.43;;
12681;SDS011;6405;59.208;18.216;2024-01-07T04:40:52;6.33;;;3.80;;
12681;SDS011;6405;59.208;18.216;2024-01-07T04:43:18;7.33;;;3.67;;
12681;SDS011;6405;59.208;18.216;2024-01-07T04:45:44;6.50;;;3.63;;
12681;SDS011;6405;59.208;18.216;2024-01-07T04:48:10;7.70;;;4.50;;
12681;SDS011;6405;59.208;18.216;2024-01-07T04:50:36;9.17;;;4.37;;
12681;SDS011;6405;59.208;18.216;2024-01-07T04:53:02;9.27;;;4.00;;
12681;SDS011;6405;59.208;18.216;2024-01-07T04:55:28;6.07;;;3.90;;
12681;SDS011;6405;59.208;18.216;2024-01-07T04:57:55;8.30;;;4.13;;
12681;SDS011;6405;59.208;18.216;2024-01-07T05:00:20;6.97;;;3.93;;
12681;SDS011;6405;59.208;18.216;2024-01-07T05:02:46;7.43;;;3.80;;
12681;SDS011;6405;59.208;18.216;2024-01-07T05:05:12;9.30;;;4.07;;
12681;SDS011;6405;59.208;18.216;2024-01-07T05:07:38;6.70;;;3.70;;
12681;SDS011;6405;59.208;18.216;2024-01-07T05:10:03;10.13;;;3.73;;
12681;SDS011;6405;59.208;18.216;2024-01-07T05:12:30;8.70;;;4.10;;
12681;SDS011;6405;59.208;18.216;2024-01-07T05:14:55;8.40;;;3.53;;
12681;SDS011;6405;59.208;18.216;2024-01-07T05:17:21;9.60;;;3.60;;
12681;SDS011;6405;59.208;18.216;2024-01-07T05:19:47;6.77;;;3.13;;
12681;SDS011;6405;59.208;18.216;2024-01-07T05:22:12;7.50;;;3.90;;
12681;SDS011;6405;59.208;18.216;2024-01-07T05:24:38;7.47;;;4.10;;
12681;SDS011;6405;59.208;18.216;2024-01-07T05:27:04;7.83;;;3.67;;
12681;SDS011;6405;59.208;18.216;2024-01-07T05:29:30;5.83;;;3.53;;
12681;SDS011;6405;59.208;18.216;2024-01-07T05:31:58;6.40;;;3.70;;
12681;SDS011;6405;59.208;18.216;2024-01-07T05:34:26;6.40;;;3.63;;
12681;SDS011;6405;59.208;18.216;2024-01-07T05:36:52;5.97;;;4.73;;
12681;SDS011;6405;59.208;18.216;2024-01-07T05:39:18;6.50;;;3.70;;
12681;SDS011;6405;59.208;18.216;2024-01-07T05:41:44;8.37;;;3.53;;
12681;SDS011;6405;59.208;18.216;2024-01-07T05:44:11;7.03;;;3.17;;
12681;SDS011;6405;59.208;18.216;2024-01-07T05:46:40;7.13;;;3.60;;
12681;SDS011;6405;59.208;18.216;2024-01-07T05:49:05;5.80;;;3.37;;
12681;SDS011;6405;59.208;18.216;2024-01-07T05:51:31;8.30;;;3.93;;
12681;SDS011;6405;59.208;18.216;2024-01-07T05:53:57;7.13;;;3.93;;
12681;SDS011;6405;59.208;18.216;2024-01-07T05:56:23;7.43;;;3.83;;
12681;SDS011;6405;59.208;18.216;2024-01-07T05:58:48;5.67;;;3.07;;
12681;SDS011;6405;59.208;18.216;2024-01-07T06:01:20;6.53;;;3.00;;
12681;SDS011;6405;59.208;18.216;2024-01-07T06:03:46;6.50;;;3.50;;
12681;SDS011;6405;59.208;18.216;2024-01-07T06:06:13;6.43;;;3.03;;
12681;SDS011;6405;59.208;18.216;2024-01-07T06:08:40;7.33;;;2.93;;
12681;SDS011;6405;59.208;18.216;2024-01-07T06:11:09;4.90;;;2.90;;
12681;SDS011;6405;59.208;18.216;2024-01-07T06:13:37;6.60;;;3.23;;
12681;SDS011;6405;59.208;18.216;2024-01-07T06:16:03;7.53;;;3.60;;
12681;SDS011;6405;59.208;18.216;2024-01-07T06:18:29;5.77;;;3.33;;
12681;SDS011;6405;59.208;18.216;2024-01-07T06:20:54;6.87;;;3.40;;
12681;SDS011;6405;59.208;18.216;2024-01-07T06:23:20;5.70;;;3.23;;
12681;SDS011;6405;59.208;18.216;2024-01-07T06:25:46;4.50;;;3.03;;
12681;SDS011;6405;59.208;18.216;2024-01-07T06:28:11;5.13;;;3.03;;
12681;SDS011;6405;59.208;18.216;2024-01-07T06:30:37;6.17;;;3.07;;
12681;SDS011;6405;59.208;18.216;2024-01-07T06:33:03;8.07;;;3.27;;
12681;SDS011;6405;59.208;18.216;2024-01-07T06:35:30;6.20;;;3.20;;
12681;SDS011;6405;59.208;18.216;2024-01-07T06:37:55;5.97;;;3.03;;
12681;SDS011;6405;59.208;18.216;2024-01-07T06:40:21;6.00;;;3.30;;
12681;SDS011;6405;59.208;18.216;2024-01-07T06:42:47;8.17;;;3.70;;
12681;SDS011;6405;59.208;18.216;2024-01-07T06:45:14;3.70;;;2.60;;
12681;SDS011;6405;59.208;18.216;2024-01-07T06:47:40;4.73;;;3.00;;
12681;SDS011;6405;59.208;18.216;2024-01-07T06:50:06;4.63;;;2.50;;
12681;SDS011;6405;59.208;18.216;2024-01-07T06:52:32;9.53;;;3.60;;
12681;SDS011;6405;59.208;18.216;2024-01-07T06:54:58;5.60;;;2.70;;
12681;SDS011;6405;59.208;18.216;2024-01-07T06:57:24;6.57;;;2.47;;
12681;SDS011;6405;59.208;18.216;2024-01-07T06:59:49;7.03;;;3.33;;
12681;SDS011;6405;59.208;18.216;2024-01-07T07:02:15;4.97;;;3.00;;
12681;SDS011;6405;59.208;18.216;2024-01-07T07:04:41;4.63;;;3.10;;
12681;SDS011;6405;59.208;18.216;2024-01-07T07:07:06;5.70;;;3.17;;
12681;SDS011;6405;59.208;18.216;2024-01-07T07:09:32;6.30;;;3.30;;
12681;SDS011;6405;59.208;18.216;2024-01-07T07:11:59;4.70;;;2.73;;
12681;SDS011;6405;59.208;18.216;2024-01-07T07:14:25;5.00;;;2.90;;
12681;SDS011;6405;59.208;18.216;2024-01-07T07:16:50;5.63;;;3.20;;
12681;SDS011;6405;59.208;18.216;2024-01-07T07:19:16;8.00;;;3.67;;
12681;SDS011;6405;59.208;18.216;2024-01-07T07:21:43;6.80;;;3.33;;
12681;SDS011;6405;59.208;18.216;2024-01-07T07:24:09;6.20;;;3.30;;
12681;SDS011;6405;59.208;18.216;2024-01-07T07:26:35;7.13;;;3.77;;
12681;SDS011;6405;59.208;18.216;2024-01-07T07:29:05;5.07;;;3.10;;
12681;SDS011;6405;59.208;18.216;2024-01-07T07:31:31;7.73;;;3.37;;
12681;SDS011;6405;59.208;18.216;2024-01-07T07:33:57;8.47;;;3.57;;
12681;SDS011;6405;59.208;18.216;2024-01-07T07:36:23;6.67;;;3.87;;
12681;SDS011;6405;59.208;18.216;2024-01-07T07:38:49;10.00;;;3.70;;
12681;SDS011;6405;59.208;18.216;2024-01-07T07:41:14;6.80;;;3.43;;
12681;SDS011;6405;59.208;18.216;2024-01-07T07:43:40;5.00;;;3.20;;
12681;SDS011;6405;59.208;18.216;2024-01-07T07:46:06;8.47;;;3.93;;
12681;SDS011;6405;59.208;18.216;2024-01-07T07:48:31;5.47;;;3.43;;
12681;SDS011;6405;59.208;18.216;2024-01-07T07:50:57;11.13;;;4.40;;
12681;SDS011;6405;59.208;18.216;2024-01-07T07:53:23;6.37;;;3.93;;
12681;SDS011;6405;59.208;18.216;2024-01-07T07:55:49;6.70;;;4.23;;
12681;SDS011;6405;59.208;18.216;2024-01-07T07:58:14;7.17;;;3.83;;
12681;SDS011;6405;59.208;18.216;2024-01-07T08:00:40;6.77;;;3.50;;
12681;SDS011;6405;59.208;18.216;2024-01-07T08:03:06;9.00;;;4.50;;
12681;SDS011;6405;59.208;18.216;2024-01-07T08:05:32;7.43;;;3.87;;
12681;SDS011;6405;59.208;18.216;2024-01-07T08:07:57;8.13;;;3.97;;
12681;SDS011;6405;59.208;18.216;2024-01-07T08:10:23;6.53;;;4.17;;
12681;SDS011;6405;59.208;18.216;2024-01-07T08:12:49;6.50;;;4.33;;
12681;SDS011;6405;59.208;18.216;2024-01-07T08:15:15;6.03;;;4.10;;
12681;SDS011;6405;59.208;18.216;2024-01-07T08:17:41;11.10;;;4.27;;
12681;SDS011;6405;59.208;18.216;2024-01-07T08:20:07;7.83;;;3.90;;
12681;SDS011;6405;59.208;18.216;2024-01-07T08:22:34;8.17;;;4.13;;
12681;SDS011;6405;59.208;18.216;2024-01-07T08:24:59;8.30;;;3.90;;
12681;SDS011;6405;59.208;18.216;2024-01-07T08:27:25;8.83;;;4.80;;
12681;SDS011;6405;59.208;18.216;2024-01-07T08:29:52;9.90;;;4.73;;
12681;SDS011;6405;59.208;18.216;2024-01-07T08:32:18;6.80;;;4.10;;
12681;SDS011;6405;59.208;18.216;2024-01-07T08:34:47;10.73;;;4.53;;
12681;SDS011;6405;59.208;18.216;2024-01-07T08:37:13;9.50;;;4.67;;
12681;SDS011;6405;59.208;18.216;2024-01-07T08:39:39;8.17;;;5.03;;
12681;SDS011;6405;59.208;18.216;2024-01-07T08:42:04;8.33;;;4.43;;
12681;SDS011;6405;59.208;18.216;2024-01-07T08:44:30;7.33;;;4.30;;
12681;SDS011;6405;59.208;18.216;2024-01-07T08:46:56;30.77;;;12.97;;
12681;SDS011;6405;59.208;18.216;2024-01-07T08:49:22;21.83;;;10.50;;
12681;SDS011;6405;59.208;18.216;2024-01-07T08:51:48;22.60;;;14.23;;
12681;SDS011;6405;59.208;18.216;2024-01-07T08:54:14;18.00;;;8.83;;
12681;SDS011;6405;59.208;18.216;2024-01-07T08:56:39;17.07;;;7.77;;
12681;SDS011;6405;59.208;18.216;2024-01-07T08:59:05;13.83;;;7.07;;
12681;SDS011;6405;59.208;18.216;2024-01-07T09:01:31;13.70;;;8.43;;
12681;SDS011;6405;59.208;18.216;2024-01-07T09:03:57;14.20;;;6.53;;
12681;SDS011;6405;59.208;18.216;2024-01-07T09:06:22;11.83;;;6.27;;
12681;SDS011;6405;59.208;18.216;2024-01-07T09:08:48;9.73;;;6.00;;
12681;SDS011;6405;59.208;18.216;2024-01-07T09:11:14;8.37;;;5.27;;
12681;SDS011;6405;59.208;18.216;2024-01-07T09:13:41;9.60;;;6.17;;
12681;SDS011;6405;59.208;18.216;2024-01-07T09:16:07;12.57;;;5.83;;
12681;SDS011;6405;59.208;18.216;2024-01-07T09:18:36;14.37;;;7.07;;
12681;SDS011;6405;59.208;18.216;2024-01-07T09:21:02;13.67;;;6.47;;
12681;SDS011;6405;59.208;18.216;2024-01-07T09:23:28;11.77;;;6.40;;
12681;SDS011;6405;59.208;18.216;2024-01-07T09:25:53;13.90;;;6.57;;
12681;SDS011;6405;59.208;18.216;2024-01-07T09:28:19;12.77;;;7.30;;
12681;SDS011;6405;59.208;18.216;2024-01-07T09:30:45;14.33;;;7.40;;
12681;SDS011;6405;59.208;18.216;2024-01-07T09:33:10;12.50;;;6.63;;
12681;SDS011;6405;59.208;18.216;2024-01-07T09:35:36;13.50;;;6.90;;
12681;SDS011;6405;59.208;18.216;2024-01-07T09:38:02;15.70;;;7.50;;
12681;SDS011;6405;59.208;18.216;2024-01-07T09:40:28;13.50;;;7.20;;
12681;SDS011;6405;59.208;18.216;2024-01-07T09:42:55;11.73;;;6.63;;
12681;SDS011;6405;59.208;18.216;2024-01-07T09:45:21;9.03;;;5.33;;
12681;SDS011;6405;59.208;18.216;2024-01-07T09:47:48;11.77;;;5.97;;
12681;SDS011;6405;59.208;18.216;2024-01-07T09:50:14;8.07;;;5.17;;
12681;SDS011;6405;59.208;18.216;2024-01-07T09:52:42;9.63;;;6.23;;
12681;SDS011;6405;59.208;18.216;2024-01-07T09:55:11;9.47;;;5.03;;
12681;SDS011;6405;59.208;18.216;2024-01-07T09:57:40;8.37;;;4.57;;
12681;SDS011;6405;59.208;18.216;2024-01-07T10:00:09;7.00;;;4.00;;
12681;SDS011;6405;59.208;18.216;2024-01-07T10:02:37;8.27;;;4.90;;
12681;SDS011;6405;59.208;18.216;2024-01-07T10:05:02;8.60;;;4.80;;
12681;SDS011;6405;59.208;18.216;2024-01-07T10:07:28;7.73;;;4.87;;
12681;SDS011;6405;59.208;18.216;2024-01-07T10:09:54;7.67;;;4.83;;
12681;SDS011;6405;59.208;18.216;2024-01-07T10:12:24;11.83;;;5.10;;
12681;SDS011;6405;59.208;18.216;2024-01-07T10:14:49;7.50;;;4.53;;
12681;SDS011;6405;59.208;18.216;2024-01-07T10:17:15;8.43;;;4.90;;
12681;SDS011;6405;59.208;18.216;2024-01-07T10:19:43;8.43;;;4.73;;
12681;SDS011;6405;59.208;18.216;2024-01-07T10:22:11;8.37;;;4.57;;
12681;SDS011;6405;59.208;18.216;2024-01-07T10:24:38;9.43;;;5.07;;
12681;SDS011;6405;59.208;18.216;2024-01-07T10:27:05;8.10;;;4.50;;
12681;SDS011;6405;59.208;18.216;2024-01-07T10:29:32;11.77;;;4.67;;
12681;SDS011;6405;59.208;18.216;2024-01-07T10:31:58;9.07;;;4.73;;
12681;SDS011;6405;59.208;18.216;2024-01-07T10:34:29;7.70;;;4.43;;
12681;SDS011;6405;59.208;18.216;2024-01-07T10:36:59;7.93;;;5.23;;
12681;SDS011;6405;59.208;18.216;2024-01-07T10:39:26;10.90;;;5.07;;
12681;SDS011;6405;59.208;18.216;2024-01-07T10:41:52;12.87;;;5.53;;
12681;SDS011;6405;59.208;18.216;2024-01-07T10:44:26;7.70;;;4.70;;
12681;SDS011;6405;59.208;18.216;2024-01-07T10:46:54;9.93;;;5.23;;
12681;SDS011;6405;59.208;18.216;2024-01-07T10:49:24;7.60;;;4.40;;
12681;SDS011;6405;59.208;18.216;2024-01-07T10:52:04;11.90;;;6.37;;
12681;SDS011;6405;59.208;18.216;2024-01-07T10:54:36;9.23;;;5.97;;
12681;SDS011;6405;59.208;18.216;2024-01-07T10:57:07;10.97;;;5.00;;
12681;SDS011;6405;59.208;18.216;2024-01-07T10:59:39;12.70;;;6.00;;
12681;SDS011;6405;59.208;18.216;2024-01-07T11:02:06;10.10;;;5.87;;
12681;SDS011;6405;59.208;18.216;2024-01-07T11:10:14;12.50;;;6.70;;
12681;SDS011;6405;59.208;18.216;2024-01-07T11:13:01;8.80;;;5.77;;
12681;SDS011;6405;59.208;18.216;2024-01-07T11:18:18;9.07;;;5.73;;
12681;SDS011;6405;59.208;18.216;2024-01-07T11:20:45;12.63;;;6.43;;
12681;SDS011;6405;59.208;18.216;2024-01-07T11:23:30;9.73;;;5.53;;
12681;SDS011;6405;59.208;18.216;2024-01-07T11:26:02;10.00;;;5.03;;
12681;SDS011;6405;59.208;18.216;2024-01-07T11:29:02;10.40;;;5.50;;
12681;SDS011;6405;59.208;18.216;2024-01-07T11:31:25;13.83;;;6.83;;
12681;SDS011;6405;59.208;18.216;2024-01-07T11:34:07;12.23;;;6.17;;
12681;SDS011;6405;59.208;18.216;2024-01-07T11:36:37;11.70;;;6.37;;
12681;SDS011;6405;59.208;18.216;2024-01-07T11:39:03;7.73;;;5.17;;
12681;SDS011;6405;59.208;18.216;2024-01-07T11:41:34;10.87;;;7.10;;
12681;SDS011;6405;59.208;18.216;2024-01-07T11:44:01;11.77;;;6.03;;
12681;SDS011;6405;59.208;18.216;2024-01-07T11:46:27;10.00;;;5.90;;
12681;SDS011;6405;59.208;18.216;2024-01-07T11:48:56;12.33;;;6.20;;
12681;SDS011;6405;59.208;18.216;2024-01-07T11:51:26;21.40;;;10.37;;
12681;SDS011;6405;59.208;18.216;2024-01-07T11:53:52;15.60;;;7.83;;
12681;SDS011;6405;59.208;18.216;2024-01-07T11:56:18;18.13;;;9.03;;
12681;SDS011;6405;59.208;18.216;2024-01-07T11:58:44;15.77;;;9.07;;
12681;SDS011;6405;59.208;18.216;2024-01-07T12:01:10;12.73;;;6.63;;
12681;SDS011;6405;59.208;18.216;2024-01-07T12:03:35;15.03;;;7.60;;
12681;SDS011;6405;59.208;18.216;2024-01-07T12:06:02;13.07;;;7.27;;
12681;SDS011;6405;59.208;18.216;2024-01-07T12:08:29;19.00;;;8.63;;
12681;SDS011;6405;59.208;18.216;2024-01-07T12:10:55;14.97;;;7.90;;
12681;SDS011;6405;59.208;18.216;2024-01-07T12:13:22;12.17;;;6.30;;
12681;SDS011;6405;59.208;18.216;2024-01-07T12:15:48;11.27;;;6.10;;
12681;SDS011;6405;59.208;18.216;2024-01-07T12:18:13;12.57;;;6.37;;
12681;SDS011;6405;59.208;18.216;2024-01-07T12:20:39;18.13;;;6.80;;
12681;SDS011;6405;59.208;18.216;2024-01-07T12:23:06;15.17;;;6.67;;
12681;SDS011;6405;59.208;18.216;2024-01-07T12:25:35;14.60;;;7.17;;
12681;SDS011;6405;59.208;18.216;2024-01-07T12:28:02;13.90;;;6.50;;
12681;SDS011;6405;59.208;18.216;2024-01-07T12:30:31;12.03;;;5.40;;
12681;SDS011;6405;59.208;18.216;2024-01-07T12:32:57;10.67;;;6.40;;
12681;SDS011;6405;59.208;18.216;2024-01-07T12:35:26;10.90;;;6.00;;
12681;SDS011;6405;59.208;18.216;2024-01-07T12:37:52;10.17;;;6.10;;
12681;SDS011;6405;59.208;18.216;2024-01-07T12:40:18;10.87;;;6.20;;
12681;SDS011;6405;59.208;18.216;2024-01-07T12:42:44;10.63;;;5.73;;
12681;SDS011;6405;59.208;18.216;2024-01-07T12:45:14;11.60;;;5.77;;
12681;SDS011;6405;59.208;18.216;2024-01-07T12:47:40;12.37;;;6.20;;
12681;SDS011;6405;59.208;18.216;2024-01-07T12:50:09;12.33;;;5.93;;
12681;SDS011;6405;59.208;18.216;2024-01-07T12:52:36;9.67;;;6.30;;
12681;SDS011;6405;59.208;18.216;2024-01-07T12:55:03;8.83;;;5.93;;
12681;SDS011;6405;59.208;18.216;2024-01-07T12:57:29;8.53;;;6.17;;
12681;SDS011;6405;59.208;18.216;2024-01-07T12:59:55;10.27;;;5.90;;
12681;SDS011;6405;59.208;18.216;2024-01-07T13:02:21;10.83;;;6.23;;
12681;SDS011;6405;59.208;18.216;2024-01-07T13:04:47;8.73;;;5.50;;
12681;SDS011;6405;59.208;18.216;2024-01-07T13:07:12;11.20;;;6.50;;
12681;SDS011;6405;59.208;18.216;2024-01-07T13:09:38;11.33;;;6.77;;
12681;SDS011;6405;59.208;18.216;2024-01-07T13:12:04;14.23;;;6.40;;
12681;SDS011;6405;59.208;18.216;2024-01-07T13:14:30;11.73;;;6.20;;
12681;SDS011;6405;59.208;18.216;2024-01-07T13:16:55;11.67;;;6.47;;
12681;SDS011;6405;59.208;18.216;2024-01-07T13:19:21;10.97;;;5.93;;
12681;SDS011;6405;59.208;18.216;2024-01-07T13:21:47;12.60;;;6.57;;
12681;SDS011;6405;59.208;18.216;2024-01-07T13:24:13;10.50;;;6.50;;
12681;SDS011;6405;59.208;18.216;2024-01-07T13:26:39;10.30;;;6.40;;
12681;SDS011;6405;59.208;18.216;2024-01-07T13:29:07;10.13;;;6.03;;
12681;SDS011;6405;59.208;18.216;2024-01-07T13:31:32;12.10;;;6.43;;
12681;SDS011;6405;59.208;18.216;2024-01-07T13:33:58;11.23;;;6.20;;
12681;SDS011;6405;59.208;18.216;2024-01-07T13:36:24;12.17;;;6.77;;
12681;SDS011;6405;59.208;18.216;2024-01-07T13:38:49;11.97;;;6.93;;
12681;SDS011;6405;59.208;18.216;2024-01-07T13:41:16;11.47;;;5.90;;
12681;SDS011;6405;59.208;18.216;2024-01-07T13:43:42;14.50;;;6.73;;
12681;SDS011;6405;59.208;18.216;2024-01-07T13:46:08;11.67;;;7.27;;
12681;SDS011;6405;59.208;18.216;2024-01-07T13:48:34;14.60;;;7.07;;
12681;SDS011;6405;59.208;18.216;2024-01-07T13:51:00;14.10;;;7.30;;
12681;SDS011;6405;59.208;18.216;2024-01-07T13:53:27;9.13;;;5.83;;
12681;SDS011;6405;59.208;18.216;2024-01-07T13:55:54;11.30;;;6.47;;
12681;SDS011;6405;59.208;18.216;2024-01-07T13:58:19;12.37;;;6.43;;
12681;SDS011;6405;59.208;18.216;2024-01-07T14:00:45;11.23;;;6.90;;
12681;SDS011;6405;59.208;18.216;2024-01-07T14:03:11;13.10;;;7.30;;
12681;SDS011;6405;59.208;18.216;2024-01-07T14:05:36;10.27;;;6.43;;
12681;SDS011;6405;59.208;18.216;2024-01-07T14:08:02;11.13;;;6.73;;
12681;SDS011;6405;59.208;18.216;2024-01-07T14:10:28;11.00;;;6.70;;
12681;SDS011;6405;59.208;18.216;2024-01-07T14:12:54;10.37;;;6.43;;
12681;SDS011;6405;59.208;18.216;2024-01-07T14:15:20;13.17;;;7.20;;
12681;SDS011;6405;59.208;18.216;2024-01-07T14:17:45;13.20;;;6.83;;
12681;SDS011;6405;59.208;18.216;2024-01-07T14:20:11;9.03;;;6.30;;
12681;SDS011;6405;59.208;18.216;2024-01-07T14:22:37;11.03;;;5.87;;
12681;SDS011;6405;59.208;18.216;2024-01-07T14:25:03;11.90;;;6.50;;
12681;SDS011;6405;59.208;18.216;2024-01-07T14:27:29;11.47;;;6.57;;
12681;SDS011;6405;59.208;18.216;2024-01-07T14:29:55;9.60;;;6.30;;
12681;SDS011;6405;59.208;18.216;2024-01-07T14:32:21;12.67;;;7.10;;
12681;SDS011;6405;59.208;18.216;2024-01-07T14:34:47;12.87;;;6.87;;
12681;SDS011;6405;59.208;18.216;2024-01-07T14:37:15;17.60;;;7.23;;
12681;SDS011;6405;59.208;18.216;2024-01-07T14:39:41;12.80;;;7.00;;
12681;SDS011;6405;59.208;18.216;2024-01-07T14:42:06;12.70;;;7.27;;
12681;SDS011;6405;59.208;18.216;2024-01-07T14:44:32;13.47;;;7.53;;
12681;SDS011;6405;59.208;18.216;2024-01-07T14:46:58;12.53;;;6.67;;